Airport View

Enter AWOS ICAO identifier for current METAR.

ex. KFNL

KTYS 112053Z 03005KT 10SM FEW250 06/M04 A3050 RMK AO2 SLP332 T00561044 58007

11 Dec 2019 21:53

Phone: 865-981-4053

Other Area AWOS: KDKX - KOQT - KGKT - KMNV

TAF KTYS 111727Z 1118/1218 VRB02KT P6SM SKC